Route Details

Aircraft Information
Group: North America Fleet
Types: B738, B752, B762, B763
Route Data
Distance: 112nm
Duration: 0h 00m
Origin METAR: KSEA 191053Z 35006KT 10SM CLR 11/08 A2999 RMK AO2 SLP161 T01060078
Dest. METAR: KPDX 191053Z 00000KT 10SM CLR 13/09 A2995 RMK AO2 SLP140 T01330089
Freight Data
(for Jun 19, 2024)
Load Factor:
30%
Manifested Cargo: 20,079lbs
Financial History
Total Freight: 958,862lbs
Average Load: 0lbs/flt
Fuel Used: 76,500lbs
Avg. Fuel Used: 0lbs/flt
Fuel Expense: $83,301
Avg. Fuel Expense: $0
Avg. Fuel Cost: $0/lbs
Total Gross Income: $1,274,532
Pilot Pay: $2,170
Total Expenses: $148,985
Total Revenue: $1,040,264
Average Revenue: $0

Capitol Logistics 405




KSEA
Seattle-Tacoma International Airport
Seattle, Washington
KPDX
Portland International Airport
Portland, Oregon

Activity Log

Date Flight Route Aircraft Duration
02/11/2023 CPX405 SEA BUWZO KRATR2 B738 0h 46m
08/26/2020 CPX307 SEA HELNS6 B763 1h 14m
02/23/2020 CPX307 SEA HELNS6 B763 0h 42m
01/06/2020 CPX307 SEA7 SEA HELNS6 B763 0h 45m
07/21/2019 CPX307 SEA HELNS6 B763 0h 35m
06/19/2019 CPX307 SEA HELNS6 B763 0h 42m
03/07/2019 CPX307 SEA HELNS6 B763 0h 47m
02/27/2019 CPX307 SEA HELNS6 B763 0h 53m
01/31/2019 CPX307 SEA BUWZO KRATR2 B763 0h 37m
01/30/2019 CPX307 SEA HELNS6 B763 0h 37m